createdAt,value
2023-02-24T00:01:28.590Z,9.89
2023-02-24T00:05:02.273Z,9.90
2023-02-24T00:08:24.123Z,9.91
2023-02-24T00:11:49.238Z,9.93
2023-02-24T00:15:11.224Z,9.96
2023-02-24T00:18:33.611Z,9.97
2023-02-24T00:21:55.658Z,9.98
2023-02-24T00:25:27.128Z,9.99
2023-02-24T00:28:48.950Z,9.99
2023-02-24T00:32:13.631Z,10.00
2023-02-24T00:35:35.807Z,10.00
2023-02-24T00:39:00.314Z,10.00
2023-02-24T00:42:23.018Z,10.01
2023-02-24T00:45:56.661Z,10.01
2023-02-24T00:49:20.943Z,10.02
2023-02-24T00:52:43.315Z,10.02
2023-02-24T00:56:40.816Z,10.03
2023-02-24T01:00:39.371Z,10.04
2023-02-24T01:04:11.531Z,10.06
2023-02-24T01:07:33.664Z,10.06
2023-02-24T01:11:17.635Z,10.07
2023-02-24T01:14:39.895Z,10.09
2023-02-24T01:18:01.955Z,10.09
2023-02-24T01:25:02.671Z,10.10
2023-02-24T01:28:24.466Z,10.10
2023-02-24T01:31:48.651Z,10.11
2023-02-24T01:35:14.603Z,10.12
2023-02-24T01:38:37.107Z,10.12
2023-02-24T01:42:01.594Z,10.12
2023-02-24T01:45:29.100Z,10.12
2023-02-24T01:48:52.346Z,10.12
2023-02-24T01:52:21.003Z,10.12
2023-02-24T01:55:50.087Z,10.13
2023-02-24T01:59:24.655Z,10.13
2023-02-24T02:02:50.662Z,10.13
2023-02-24T02:06:17.806Z,10.14
2023-02-24T02:09:43.609Z,10.15
2023-02-24T02:13:08.804Z,10.14
2023-02-24T02:16:45.958Z,10.15
2023-02-24T02:20:42.819Z,10.14
2023-02-24T02:24:35.533Z,10.14
2023-02-24T02:28:20.651Z,10.14
2023-02-24T02:32:24.891Z,10.15
2023-02-24T02:35:54.575Z,10.15
2023-02-24T02:39:41.337Z,10.16
2023-02-24T02:43:26.792Z,10.16
2023-02-24T02:47:04.696Z,10.17
2023-02-24T02:50:43.302Z,10.18
2023-02-24T02:54:16.192Z,10.19
2023-02-24T02:57:47.294Z,10.20
2023-02-24T03:01:10.189Z,10.22
2023-02-24T03:04:32.153Z,10.23
2023-02-24T03:07:59.110Z,10.26
2023-02-24T03:11:21.379Z,10.27
2023-02-24T03:14:51.540Z,10.29
2023-02-24T03:18:30.025Z,10.31
2023-02-24T03:22:06.283Z,10.33
2023-02-24T03:25:46.637Z,10.35
2023-02-24T03:29:36.537Z,10.37
2023-02-24T03:33:09.949Z,10.39
2023-02-24T03:36:35.338Z,10.41
2023-02-24T03:40:14.883Z,10.43
2023-02-24T03:43:41.573Z,10.44
2023-02-24T03:47:03.641Z,10.46
2023-02-24T03:50:32.139Z,10.48
2023-02-24T03:54:14.574Z,10.50
2023-02-24T04:02:00.397Z,10.54
2023-02-24T04:05:30.825Z,10.56
2023-02-24T04:09:21.841Z,10.58
2023-02-24T04:13:07.566Z,10.60
2023-02-24T04:16:44.466Z,10.62
2023-02-24T04:20:20.642Z,10.64
2023-02-24T04:23:47.912Z,10.66
2023-02-24T04:27:12.139Z,10.68
2023-02-24T04:30:46.199Z,10.70
2023-02-24T04:34:39.511Z,10.72
2023-02-24T04:38:01.862Z,10.74
2023-02-24T04:41:28.007Z,10.76
2023-02-24T04:44:49.876Z,10.79
2023-02-24T04:48:15.013Z,10.81
2023-02-24T04:51:38.347Z,10.82
2023-02-24T04:55:00.140Z,10.83
2023-02-24T04:58:28.055Z,10.84
2023-02-24T05:02:01.385Z,10.85
2023-02-24T05:05:28.140Z,10.86
2023-02-24T05:08:55.664Z,10.87
2023-02-24T05:12:17.532Z,10.89
2023-02-24T05:15:41.849Z,10.90
2023-02-24T05:19:22.450Z,10.91
2023-02-24T05:22:44.286Z,10.92
2023-02-24T05:26:09.147Z,10.92
2023-02-24T05:29:34.230Z,10.93
2023-02-24T05:32:56.446Z,10.95
2023-02-24T05:36:19.501Z,10.96
2023-02-24T05:39:41.433Z,10.97
2023-02-24T05:43:18.854Z,10.98
2023-02-24T05:46:45.967Z,11.00
2023-02-24T05:50:09.417Z,11.01
2023-02-24T05:53:31.592Z,11.03
2023-02-24T05:56:53.453Z,11.04
2023-02-24T06:00:16.692Z,11.05
2023-02-24T06:03:38.564Z,11.06
2023-02-24T06:07:03.712Z,11.08
2023-02-24T06:10:25.832Z,11.09
2023-02-24T06:13:48.082Z,11.11
2023-02-24T06:17:11.975Z,11.12
2023-02-24T06:20:33.985Z,11.14
2023-02-24T06:23:57.713Z,11.16
2023-02-24T06:27:21.718Z,11.17
2023-02-24T06:30:43.866Z,11.19
2023-02-24T06:34:05.862Z,11.21
2023-02-24T06:37:28.334Z,11.22
2023-02-24T06:41:06.316Z,11.23
2023-02-24T06:44:28.123Z,11.26
2023-02-24T06:47:50.854Z,11.28
2023-02-24T06:51:26.835Z,11.30
2023-02-24T06:54:49.762Z,11.33
2023-02-24T06:58:16.580Z,11.34
2023-02-24T07:01:45.562Z,11.36
2023-02-24T07:05:14.560Z,11.38
2023-02-24T07:08:37.768Z,11.41
2023-02-24T07:12:02.699Z,11.42
2023-02-24T07:15:24.854Z,11.44
2023-02-24T07:19:02.755Z,11.46
2023-02-24T07:22:25.356Z,11.48
2023-02-24T07:25:47.424Z,11.50
2023-02-24T07:32:51.041Z,11.55
2023-02-24T07:36:15.087Z,11.59
2023-02-24T07:39:43.565Z,11.62
2023-02-24T07:43:06.635Z,11.65
2023-02-24T07:46:29.468Z,11.68
2023-02-24T07:49:51.333Z,11.72
2023-02-24T07:53:16.598Z,11.77
2023-02-24T07:56:46.128Z,11.82
2023-02-24T08:00:18.086Z,11.85
2023-02-24T08:03:41.546Z,11.88
2023-02-24T08:07:06.003Z,11.89
2023-02-24T08:10:31.256Z,11.91
2023-02-24T08:14:02.715Z,11.93
2023-02-24T08:17:26.780Z,11.95
2023-02-24T08:20:52.509Z,11.97
2023-02-24T08:24:18.283Z,12.00
2023-02-24T08:27:43.199Z,12.04
2023-02-24T08:31:05.858Z,12.07
2023-02-24T08:34:32.052Z,12.10
2023-02-24T08:37:54.917Z,12.12
2023-02-24T08:41:20.097Z,12.13
2023-02-24T08:44:44.583Z,12.14
2023-02-24T08:48:18.417Z,12.14
2023-02-24T08:51:44.142Z,12.15
2023-02-24T08:55:10.737Z,12.16
2023-02-24T08:58:32.697Z,12.17
2023-02-24T09:02:17.756Z,12.18
2023-02-24T09:05:39.776Z,12.20
2023-02-24T09:09:17.551Z,12.23
2023-02-24T09:12:42.344Z,12.25
2023-02-24T09:16:07.487Z,12.26
2023-02-24T09:19:51.594Z,12.25
2023-02-24T09:23:20.277Z,12.26
2023-02-24T09:26:43.825Z,12.28
2023-02-24T09:30:08.304Z,12.31
2023-02-24T09:33:40.311Z,12.32
2023-02-24T09:37:05.873Z,12.34
2023-02-24T09:40:49.008Z,12.35
2023-02-24T09:44:21.715Z,12.38
2023-02-24T09:47:54.968Z,12.41
2023-02-24T09:51:25.763Z,12.43
2023-02-24T09:55:13.608Z,12.44
2023-02-24T09:58:43.739Z,12.44
2023-02-24T10:02:15.566Z,12.45
2023-02-24T10:05:48.494Z,12.45
2023-02-24T10:09:14.349Z,12.46
2023-02-24T10:12:40.229Z,12.47
2023-02-24T10:16:07.824Z,12.48
2023-02-24T10:19:31.196Z,12.47
2023-02-24T10:23:09.833Z,12.47
2023-02-24T10:27:00.755Z,12.48
2023-02-24T10:30:47.231Z,12.48
2023-02-24T10:34:13.580Z,12.48
2023-02-24T10:37:35.710Z,12.50
2023-02-24T10:40:57.777Z,12.52
2023-02-24T10:44:24.323Z,12.55
2023-02-24T10:47:57.799Z,12.59
2023-02-24T10:51:22.373Z,12.60
2023-02-24T10:55:05.207Z,12.60
2023-02-24T10:58:57.369Z,12.61
2023-02-24T11:02:30.252Z,12.62
2023-02-24T11:06:18.957Z,12.64
2023-02-24T11:09:49.624Z,12.65
2023-02-24T11:13:34.939Z,12.66
2023-02-24T11:17:16.381Z,12.70
2023-02-24T11:20:49.929Z,12.74
2023-02-24T11:24:17.085Z,12.77
2023-02-24T11:27:42.022Z,12.80
2023-02-24T11:31:45.308Z,12.81
2023-02-24T11:35:17.775Z,12.84
2023-02-24T11:38:47.029Z,12.86
2023-02-24T11:42:13.723Z,12.88
2023-02-24T11:46:34.671Z,12.89
2023-02-24T11:50:24.678Z,12.96
2023-02-24T11:54:11.741Z,13.09
2023-02-24T11:57:43.794Z,13.27
2023-02-24T12:01:48.648Z,13.40
2023-02-24T12:05:22.310Z,13.54
2023-02-24T12:08:48.235Z,13.64
2023-02-24T12:12:16.295Z,13.75
2023-02-24T12:15:56.751Z,13.84
2023-02-24T12:19:31.389Z,13.99
2023-02-24T12:22:59.374Z,14.23
2023-02-24T12:26:49.388Z,14.33
2023-02-24T12:30:38.853Z,14.32
2023-02-24T12:34:08.651Z,14.28
2023-02-24T12:38:21.842Z,14.43
2023-02-24T12:42:18.669Z,14.72
2023-02-24T12:45:43.668Z,14.94
2023-02-24T12:49:18.062Z,14.96
2023-02-24T12:52:49.759Z,14.96
2023-02-24T12:56:25.728Z,14.98
2023-02-24T12:59:47.891Z,15.08
2023-02-24T13:03:21.630Z,15.30
2023-02-24T13:07:02.492Z,15.42
2023-02-24T13:10:36.686Z,15.34
2023-02-24T13:14:04.681Z,15.23
2023-02-24T13:17:27.431Z,15.21
2023-02-24T13:20:50.812Z,15.28
2023-02-24T13:24:24.043Z,15.41
2023-02-24T13:27:56.072Z,15.59
2023-02-24T13:31:18.281Z,15.81
2023-02-24T13:34:45.022Z,15.75
2023-02-24T13:38:24.689Z,15.61
2023-02-24T13:41:46.761Z,15.50
2023-02-24T13:45:09.577Z,15.41
2023-02-24T13:48:39.940Z,15.41
2023-02-24T13:52:25.071Z,15.54
2023-02-24T13:56:09.995Z,15.61
2023-02-24T14:00:11.550Z,15.62
2023-02-24T14:03:42.478Z,15.59
2023-02-24T14:07:13.256Z,15.57
2023-02-24T14:10:39.202Z,15.56
2023-02-24T14:14:01.006Z,15.54
2023-02-24T14:17:36.288Z,15.50
2023-02-24T14:20:58.543Z,15.48
2023-02-24T14:24:25.123Z,15.52
2023-02-24T14:27:50.080Z,15.67
2023-02-24T14:31:13.450Z,15.63
2023-02-24T14:34:35.318Z,15.56
2023-02-24T14:37:57.949Z,15.56
2023-02-24T14:41:23.628Z,15.54
2023-02-24T14:44:49.389Z,15.53
2023-02-24T14:48:23.171Z,15.64
2023-02-24T14:51:45.611Z,15.66
2023-02-24T14:55:26.691Z,15.53
2023-02-24T14:58:51.384Z,15.37
2023-02-24T15:02:19.633Z,15.24
2023-02-24T15:05:44.611Z,15.12
2023-02-24T15:09:08.104Z,14.96
2023-02-24T15:12:46.173Z,14.65
2023-02-24T15:16:28.858Z,14.18
2023-02-24T15:19:54.716Z,13.75
2023-02-24T15:23:32.864Z,13.42
2023-02-24T15:26:56.675Z,13.11
2023-02-24T15:30:30.665Z,12.85
2023-02-24T15:33:58.016Z,12.56
2023-02-24T15:37:24.752Z,12.42
2023-02-24T15:40:52.916Z,12.28
2023-02-24T15:44:28.174Z,12.17
2023-02-24T15:47:53.738Z,12.10
2023-02-24T15:51:20.840Z,12.00
2023-02-24T15:54:45.866Z,11.92
2023-02-24T15:58:11.780Z,11.86
2023-02-24T16:01:33.677Z,11.89
2023-02-24T16:04:55.403Z,12.02
2023-02-24T16:08:18.524Z,12.21
2023-02-24T16:11:41.089Z,12.42
2023-02-24T16:15:04.294Z,12.54
2023-02-24T16:18:25.952Z,12.66
2023-02-24T16:21:49.772Z,12.80
2023-02-24T16:25:15.367Z,12.92
2023-02-24T16:28:37.164Z,13.01
2023-02-24T16:31:59.106Z,13.10
2023-02-24T16:35:25.900Z,13.18
2023-02-24T16:38:50.856Z,13.29
2023-02-24T16:42:12.909Z,13.35
2023-02-24T16:45:40.268Z,13.36
2023-02-24T16:49:02.771Z,13.37
2023-02-24T16:52:25.895Z,13.35
2023-02-24T16:55:47.675Z,13.34
2023-02-24T16:59:09.467Z,13.33
2023-02-24T17:02:33.625Z,13.30
2023-02-24T17:05:56.256Z,13.27
2023-02-24T17:09:20.518Z,13.23
2023-02-24T17:13:03.588Z,13.19
2023-02-24T17:16:28.073Z,13.07
2023-02-24T17:19:57.528Z,13.02
2023-02-24T17:23:26.018Z,12.98
2023-02-24T17:26:50.682Z,12.96
2023-02-24T17:30:21.683Z,12.93
2023-02-24T17:34:01.175Z,12.89
2023-02-24T17:37:26.578Z,12.86
2023-02-24T17:41:00.152Z,12.81
2023-02-24T17:44:34.439Z,12.77
2023-02-24T17:47:59.485Z,12.73
2023-02-24T17:51:30.810Z,12.69
2023-02-24T17:54:57.172Z,12.66
2023-02-24T17:58:25.417Z,12.63
2023-02-24T18:02:04.087Z,12.60
2023-02-24T18:05:50.892Z,12.56
2023-02-24T18:09:30.142Z,12.53
2023-02-24T18:13:00.858Z,12.50
2023-02-24T18:16:35.593Z,12.47
2023-02-24T18:20:03.241Z,12.45
2023-02-24T18:23:26.493Z,12.42
2023-02-24T18:26:51.976Z,12.40
2023-02-24T18:30:18.959Z,12.38
2023-02-24T18:33:44.675Z,12.35
2023-02-24T18:37:09.273Z,12.32
2023-02-24T18:40:32.231Z,12.30
2023-02-24T18:43:55.121Z,12.27
2023-02-24T18:47:16.808Z,12.24
2023-02-24T18:50:38.572Z,12.21
2023-02-24T18:54:12.749Z,12.18
2023-02-24T18:57:37.143Z,12.14
2023-02-24T19:01:03.987Z,12.11
2023-02-24T19:04:26.911Z,12.08
2023-02-24T19:07:50.589Z,12.04
2023-02-24T19:11:15.095Z,12.01
2023-02-24T19:14:37.686Z,11.98
2023-02-24T19:18:05.076Z,11.94
2023-02-24T19:21:33.634Z,11.90
2023-02-24T19:25:15.945Z,11.86
2023-02-24T19:28:56.837Z,11.83
2023-02-24T19:32:46.977Z,11.78
2023-02-24T19:36:17.443Z,11.75
2023-02-24T19:40:02.909Z,11.71
2023-02-24T19:43:34.772Z,11.68
2023-02-24T19:46:56.643Z,11.64
2023-02-24T19:50:21.430Z,11.59
2023-02-24T20:04:16.282Z,11.50
2023-02-24T20:07:38.947Z,11.46
2023-02-24T20:11:09.741Z,11.41
2023-02-24T20:14:31.650Z,11.38
2023-02-24T20:17:53.477Z,11.34
2023-02-24T20:21:15.276Z,11.31
2023-02-24T20:24:37.225Z,11.27
2023-02-24T20:28:00.482Z,11.24
2023-02-24T20:31:24.358Z,11.20
2023-02-24T20:34:46.289Z,11.17
2023-02-24T20:38:08.044Z,11.14
2023-02-24T20:41:33.476Z,11.10
2023-02-24T20:44:57.373Z,11.08
2023-02-24T20:48:20.649Z,11.06
2023-02-24T20:51:45.894Z,11.05
2023-02-24T20:55:12.641Z,11.03
2023-02-24T20:58:46.358Z,11.02
2023-02-24T21:02:09.417Z,11.01
2023-02-24T21:05:42.296Z,11.00
2023-02-24T21:09:09.571Z,11.00
2023-02-24T21:12:31.448Z,10.99
2023-02-24T21:16:06.844Z,10.98
2023-02-24T21:19:40.479Z,10.97
2023-02-24T21:23:07.534Z,10.97
2023-02-24T21:26:30.172Z,10.98
2023-02-24T21:29:58.449Z,10.98
2023-02-24T21:33:20.886Z,10.99
2023-02-24T21:36:53.945Z,11.00
2023-02-24T21:40:17.856Z,11.01
2023-02-24T21:43:39.609Z,11.01
2023-02-24T21:47:01.313Z,11.02
2023-02-24T21:50:23.757Z,11.03
2023-02-24T21:53:49.360Z,11.03
2023-02-24T21:57:11.086Z,11.03
2023-02-24T22:00:34.345Z,11.03
2023-02-24T22:03:58.017Z,11.03
2023-02-24T22:07:19.856Z,11.03
2023-02-24T22:10:41.685Z,11.02
2023-02-24T22:14:03.952Z,11.01
2023-02-24T22:17:27.903Z,11.00
2023-02-24T22:20:49.505Z,10.99
2023-02-24T22:24:15.041Z,10.98
2023-02-24T22:27:38.050Z,10.97
2023-02-24T22:31:02.016Z,10.97
2023-02-24T22:34:26.188Z,10.96
2023-02-24T22:37:53.895Z,10.95
2023-02-24T22:41:19.310Z,10.94
2023-02-24T22:44:44.477Z,10.93
2023-02-24T22:48:16.425Z,10.92
2023-02-24T22:51:40.590Z,10.91
2023-02-24T22:55:11.981Z,10.91
2023-02-24T22:58:33.953Z,10.90
2023-02-24T23:02:11.710Z,10.90
2023-02-24T23:05:39.748Z,10.90
2023-02-24T23:09:01.815Z,10.89
2023-02-24T23:12:23.981Z,10.90
2023-02-24T23:15:52.497Z,10.90
2023-02-24T23:19:19.569Z,10.90
2023-02-24T23:22:53.187Z,10.89
2023-02-24T23:26:15.439Z,10.89
2023-02-24T23:29:47.494Z,10.90
2023-02-24T23:33:13.047Z,10.90
2023-02-24T23:36:36.004Z,10.91
2023-02-24T23:40:01.629Z,10.91
2023-02-24T23:44:03.806Z,10.92
2023-02-24T23:47:56.022Z,10.92
2023-02-24T23:51:20.605Z,10.92
2023-02-24T23:54:44.861Z,10.93
2023-02-24T23:58:09.769Z,10.93
